ENTC/TOS METAR and TAF weather

Enter ICAO airport designator
Station Type Date Time Source
ENTC METAR 2020/05/30 05:50 UTC NOAA

ENTC 300550Z 21009KT 9999 VCSH FEW011 SCT020 BKN025 06/03 Q1033 NOSIG RMK WIND 2600FT 21010KT


Station Type Date Time Source
ENTC Decoded METAR 2020/05/30 05:50 UTC NOAA

Tromso / Langnes, Norway (ENTC) 69-41N 018-55E 10M
May 30, 2020 - 01:50 AM EDT / 2020.05.30 0550 UTC
Wind: from the SSW (210 degrees) at 10 MPH (9 KT):0
Visibility: greater than 7 mile(s):0
Sky conditions: mostly cloudy
Weather: showers in the vicinity
Temperature: 42 F (6 C)
Dew Point: 37 F (3 C)
Relative Humidity: 81%
Pressure (altimeter): 30.50 in. Hg (1033 hPa)
ob: ENTC 300550Z 21009KT 9999 VCSH FEW011 SCT020 BKN025 06/03 Q1033 NOSIG RMK WIND 2600FT 21010KT
cycle: 6

Station Type Date Time Source
ENTC TAF 2020/05/30 06:57 UTC NOAA

TAF ENTC 300500Z 3006/3106 24008KT 9999 FEW010 BKN018 PROB40
TEMPO 3015/3024 4000 RADZ BKN008

Example: see airport list